createdAt,value
2022-11-15T00:01:33.939Z,99510.86
2022-11-15T00:04:20.989Z,99509.30
2022-11-15T00:07:07.740Z,99504.05
2022-11-15T00:09:54.515Z,99504.38
2022-11-15T00:12:40.925Z,99503.75
2022-11-15T00:15:27.816Z,99504.29
2022-11-15T00:18:15.507Z,99502.24
2022-11-15T00:21:08.471Z,99497.48
2022-11-15T00:23:55.358Z,99494.48
2022-11-15T00:26:41.990Z,99489.44
2022-11-15T00:29:28.404Z,99485.86
2022-11-15T00:32:14.840Z,99484.63
2022-11-15T00:35:01.675Z,99481.14
2022-11-15T00:37:48.849Z,99479.38
2022-11-15T00:40:35.735Z,99474.89
2022-11-15T00:43:22.682Z,99474.69
2022-11-15T00:46:10.550Z,99472.08
2022-11-15T00:48:57.310Z,99468.30
2022-11-15T00:51:43.901Z,99459.61
2022-11-15T00:54:30.417Z,99455.20
2022-11-15T00:57:16.901Z,99452.77
2022-11-15T01:00:04.191Z,99453.05
2022-11-15T01:02:51.169Z,99453.73
2022-11-15T01:05:39.167Z,99448.55
2022-11-15T01:08:26.171Z,99446.97
2022-11-15T01:11:13.400Z,99448.88
2022-11-15T01:13:59.998Z,99443.98
2022-11-15T01:16:46.648Z,99444.36
2022-11-15T01:19:33.704Z,99442.28
2022-11-15T01:22:20.199Z,99438.41
2022-11-15T01:25:06.940Z,99434.52
2022-11-15T01:27:53.839Z,99436.04
2022-11-15T01:30:40.328Z,99436.48
2022-11-15T01:33:28.091Z,99433.17
2022-11-15T01:36:22.672Z,99430.87
2022-11-15T01:39:09.134Z,99431.56
2022-11-15T01:41:56.742Z,99433.10
2022-11-15T01:44:52.772Z,99435.81
2022-11-15T01:47:41.676Z,99433.02
2022-11-15T01:50:33.456Z,99431.54
2022-11-15T01:53:23.419Z,99425.49
2022-11-15T01:56:15.019Z,99420.91
2022-11-15T01:59:05.493Z,99410.95
2022-11-15T02:01:52.139Z,99412.52
2022-11-15T02:04:45.804Z,99411.38
2022-11-15T02:07:35.328Z,99409.64
2022-11-15T02:10:24.890Z,99404.78
2022-11-15T02:13:11.732Z,99402.33
2022-11-15T02:16:25.469Z,99400.09
2022-11-15T02:19:14.998Z,99396.48
2022-11-15T02:22:25.714Z,99398.14
2022-11-15T02:25:39.052Z,99397.63
2022-11-15T02:28:25.829Z,99400.29
2022-11-15T02:31:39.299Z,99402.23
2022-11-15T02:34:42.391Z,99406.33
2022-11-15T02:37:43.874Z,99403.88
2022-11-15T02:40:47.477Z,99403.73
2022-11-15T02:43:59.203Z,99402.90
2022-11-15T02:47:13.703Z,99398.92
2022-11-15T02:50:06.188Z,99399.41
2022-11-15T02:52:53.296Z,99395.64
2022-11-15T02:55:44.752Z,99394.59
2022-11-15T02:58:36.972Z,99392.67
2022-11-15T03:01:41.789Z,99388.27
2022-11-15T03:04:44.950Z,99389.41
2022-11-15T03:07:41.119Z,99386.80
2022-11-15T03:10:41.425Z,99380.80
2022-11-15T03:13:56.948Z,99382.84
2022-11-15T03:16:56.211Z,99380.96
2022-11-15T03:19:52.837Z,99376.48
2022-11-15T03:22:44.615Z,99377.26
2022-11-15T03:25:34.275Z,99376.93
2022-11-15T03:28:30.963Z,99368.35
2022-11-15T03:31:43.428Z,99359.10
2022-11-15T03:34:43.620Z,99356.73
2022-11-15T03:38:07.820Z,99354.77
2022-11-15T03:41:02.646Z,99352.27
2022-11-15T03:44:10.967Z,99348.13
2022-11-15T03:47:03.001Z,99346.70
2022-11-15T03:49:56.692Z,99342.13
2022-11-15T03:52:45.740Z,99340.64
2022-11-15T03:55:33.554Z,99340.02
2022-11-15T03:58:20.436Z,99334.98
2022-11-15T04:01:07.404Z,99329.88
2022-11-15T04:03:54.608Z,99327.55
2022-11-15T04:06:41.396Z,99323.81
2022-11-15T04:09:27.996Z,99319.98
2022-11-15T04:12:31.757Z,99321.30
2022-11-15T04:15:23.682Z,99315.60
2022-11-15T04:18:10.358Z,99309.03
2022-11-15T04:21:15.325Z,99311.37
2022-11-15T04:24:13.840Z,99306.88
2022-11-15T04:27:00.926Z,99302.18
2022-11-15T04:29:47.284Z,99303.40
2022-11-15T04:32:34.100Z,99301.04
2022-11-15T04:35:20.664Z,99296.96
2022-11-15T04:38:09.465Z,99291.33
2022-11-15T04:40:56.317Z,99288.20
2022-11-15T04:43:43.097Z,99292.86
2022-11-15T04:46:29.896Z,99286.97
2022-11-15T04:49:16.448Z,99282.70
2022-11-15T04:52:03.295Z,99282.82
2022-11-15T04:54:50.057Z,99280.77
2022-11-15T04:57:37.908Z,99275.55
2022-11-15T05:00:24.809Z,99267.35
2022-11-15T05:03:30.128Z,99266.48
2022-11-15T05:06:17.256Z,99265.27
2022-11-15T05:09:04.476Z,99263.00
2022-11-15T05:11:51.491Z,99256.16
2022-11-15T05:14:38.133Z,99253.06
2022-11-15T05:17:24.738Z,99248.16
2022-11-15T05:20:12.058Z,99246.67
2022-11-15T05:22:58.968Z,99244.42
2022-11-15T05:25:45.776Z,99246.23
2022-11-15T05:28:33.681Z,99242.70
2022-11-15T05:31:20.594Z,99240.64
2022-11-15T05:34:07.372Z,99244.04
2022-11-15T05:36:54.495Z,99246.58
2022-11-15T05:39:41.230Z,99250.42
2022-11-15T05:42:28.860Z,99249.70
2022-11-15T05:45:15.933Z,99249.55
2022-11-15T05:48:07.722Z,99248.70
2022-11-15T05:50:54.740Z,99243.01
2022-11-15T05:53:41.681Z,99238.59
2022-11-15T05:56:29.437Z,99235.02
2022-11-15T05:59:17.089Z,99227.94
2022-11-15T06:02:04.132Z,99228.30
2022-11-15T06:04:50.928Z,99230.93
2022-11-15T06:07:37.875Z,99229.15
2022-11-15T06:10:24.885Z,99233.48
2022-11-15T06:13:11.464Z,99229.42
2022-11-15T06:15:58.282Z,99230.30
2022-11-15T06:18:45.352Z,99231.07
2022-11-15T06:21:32.024Z,99232.23
2022-11-15T06:24:18.580Z,99234.15
2022-11-15T06:27:05.150Z,99237.46
2022-11-15T06:29:51.946Z,99232.35
2022-11-15T06:32:38.664Z,99234.36
2022-11-15T06:35:25.263Z,99229.30
2022-11-15T06:38:12.643Z,99225.98
2022-11-15T06:41:08.269Z,99221.92
2022-11-15T06:43:55.117Z,99218.84
2022-11-15T06:46:41.793Z,99217.06
2022-11-15T06:49:28.892Z,99221.57
2022-11-15T06:52:15.484Z,99223.16
2022-11-15T06:55:02.304Z,99223.67
2022-11-15T06:57:50.802Z,99227.36
2022-11-15T07:00:38.577Z,99230.58
2022-11-15T07:03:25.091Z,99231.98
2022-11-15T07:06:11.824Z,99230.20
2022-11-15T07:08:58.471Z,99230.67
2022-11-15T07:11:45.492Z,99230.22
2022-11-15T07:14:32.148Z,99225.36
2022-11-15T07:17:18.742Z,99221.02
2022-11-15T07:20:06.280Z,99220.85
2022-11-15T07:23:00.907Z,99215.23
2022-11-15T07:25:47.693Z,99212.94
2022-11-15T07:28:34.428Z,99203.89
2022-11-15T07:31:21.036Z,99195.77
2022-11-15T07:34:07.515Z,99193.12
2022-11-15T07:36:54.120Z,99189.86
2022-11-15T07:39:40.579Z,99191.64
2022-11-15T07:42:45.773Z,99188.77
2022-11-15T07:45:34.483Z,99189.80
2022-11-15T07:48:21.001Z,99188.98
2022-11-15T07:51:13.756Z,99184.23
2022-11-15T07:54:00.672Z,99175.65
2022-11-15T07:56:47.287Z,99167.80
2022-11-15T07:59:35.992Z,99163.36
2022-11-15T08:02:27.631Z,99161.73
2022-11-15T08:05:16.790Z,99162.23
2022-11-15T08:08:03.943Z,99161.61
2022-11-15T08:10:50.918Z,99154.67
2022-11-15T08:13:37.615Z,99153.02
2022-11-15T08:16:24.445Z,99149.23
2022-11-15T08:19:11.132Z,99146.63
2022-11-15T08:21:58.168Z,99139.64
2022-11-15T08:24:45.673Z,99140.41
2022-11-15T08:27:32.145Z,99142.76
2022-11-15T08:30:19.352Z,99142.30
2022-11-15T08:33:06.238Z,99139.07
2022-11-15T08:35:53.120Z,99136.57
2022-11-15T08:38:40.060Z,99139.23
2022-11-15T08:41:33.096Z,99142.90
2022-11-15T08:44:19.966Z,99145.77
2022-11-15T08:47:06.639Z,99149.48
2022-11-15T08:49:53.171Z,99150.75
2022-11-15T08:52:40.056Z,99149.74
2022-11-15T08:55:26.595Z,99151.92
2022-11-15T08:58:13.520Z,99154.24
2022-11-15T09:01:00.144Z,99153.59
2022-11-15T09:03:46.572Z,99151.23
2022-11-15T09:06:33.386Z,99148.21
2022-11-15T09:09:20.251Z,99145.73
2022-11-15T09:12:07.916Z,99139.23
2022-11-15T09:14:54.365Z,99134.25
2022-11-15T09:17:41.689Z,99133.16
2022-11-15T09:20:28.277Z,99131.54
2022-11-15T09:23:14.948Z,99125.69
2022-11-15T09:26:03.817Z,99119.84
2022-11-15T09:28:50.474Z,99115.38
2022-11-15T09:31:37.422Z,99113.20
2022-11-15T09:34:24.205Z,99108.96
2022-11-15T09:37:10.894Z,99105.87
2022-11-15T09:39:57.684Z,99100.33
2022-11-15T09:43:06.222Z,99097.77
2022-11-15T09:46:14.287Z,99096.77
2022-11-15T09:49:05.287Z,99093.89
2022-11-15T09:51:48.593Z,99093.80
2022-11-15T09:54:53.756Z,99086.87
2022-11-15T09:57:41.540Z,99079.88
2022-11-15T10:00:43.992Z,99076.76
2022-11-15T10:03:14.724Z,99070.25
2022-11-15T10:05:56.354Z,99066.35
2022-11-15T10:08:46.083Z,99062.73
2022-11-15T10:11:36.776Z,99054.42
2022-11-15T10:14:22.257Z,99052.36
2022-11-15T10:17:01.416Z,99052.48
2022-11-15T10:19:48.698Z,99051.59
2022-11-15T10:22:16.926Z,99046.44
2022-11-15T10:24:46.911Z,99044.79
2022-11-15T10:27:18.519Z,99046.10
2022-11-15T10:29:48.911Z,99043.34
2022-11-15T10:32:19.699Z,99043.94
2022-11-15T10:34:50.178Z,99043.11
2022-11-15T10:37:30.711Z,99039.55
2022-11-15T10:40:25.250Z,99035.92
2022-11-15T10:43:12.039Z,99028.55
2022-11-15T10:45:40.447Z,99016.46
2022-11-15T10:48:14.452Z,99011.27
2022-11-15T10:50:45.227Z,99004.02
2022-11-15T10:53:19.090Z,98998.86
2022-11-15T10:55:53.647Z,98995.85
2022-11-15T10:58:58.368Z,98993.38
2022-11-15T11:01:30.589Z,98992.34
2022-11-15T11:04:06.121Z,98990.21
2022-11-15T11:06:57.462Z,98989.66
2022-11-15T11:09:37.643Z,98976.67
2022-11-15T11:12:10.743Z,98965.73
2022-11-15T11:14:40.505Z,98957.71
2022-11-15T11:17:23.048Z,98955.31
2022-11-15T11:19:58.081Z,98948.31
2022-11-15T11:22:26.066Z,98942.59
2022-11-15T11:25:15.872Z,98942.58
2022-11-15T11:28:06.936Z,98943.81
2022-11-15T11:30:50.316Z,98942.82
2022-11-15T11:33:32.799Z,98944.22
2022-11-15T11:36:19.491Z,98943.47
2022-11-15T11:38:59.169Z,98942.00
2022-11-15T11:42:00.968Z,98937.83
2022-11-15T11:44:38.121Z,98934.75
2022-11-15T11:47:23.881Z,98928.21
2022-11-15T11:50:00.930Z,98922.49
2022-11-15T11:52:53.671Z,98919.10
2022-11-15T11:55:32.039Z,98917.44
2022-11-15T11:58:22.117Z,98913.17
2022-11-15T12:01:17.094Z,98906.15
2022-11-15T12:03:52.001Z,98905.39
2022-11-15T12:06:50.279Z,98902.55
2022-11-15T12:09:24.661Z,98902.91
2022-11-15T12:12:19.567Z,98904.12
2022-11-15T12:14:53.012Z,98904.04
2022-11-15T12:17:25.515Z,98902.73
2022-11-15T12:19:58.597Z,98903.83
2022-11-15T12:22:40.046Z,98904.77
2022-11-15T12:25:17.016Z,98903.51
2022-11-15T12:28:17.947Z,98901.75
2022-11-15T12:30:54.622Z,98896.48
2022-11-15T12:33:31.736Z,98892.70
2022-11-15T12:36:13.811Z,98887.67
2022-11-15T12:39:05.430Z,98887.38
2022-11-15T12:41:35.700Z,98884.57
2022-11-15T12:44:05.503Z,98888.05
2022-11-15T12:46:34.211Z,98879.64
2022-11-15T12:49:08.823Z,98879.41
2022-11-15T12:51:43.092Z,98872.45
2022-11-15T12:54:23.577Z,98871.37
2022-11-15T12:57:21.070Z,98867.02
2022-11-15T12:59:56.138Z,98864.41
2022-11-15T13:02:36.571Z,98862.40
2022-11-15T13:05:16.733Z,98865.66
2022-11-15T13:07:45.530Z,98867.64
2022-11-15T13:10:13.720Z,98869.27
2022-11-15T13:12:44.922Z,98868.71
2022-11-15T13:15:13.047Z,98872.26
2022-11-15T13:17:45.606Z,98871.88
2022-11-15T13:20:16.632Z,98867.29
2022-11-15T13:22:51.969Z,98862.36
2022-11-15T13:25:24.676Z,98859.08
2022-11-15T13:27:55.344Z,98855.06
2022-11-15T13:30:27.348Z,98850.03
2022-11-15T13:32:56.466Z,98845.92
2022-11-15T13:35:27.816Z,98843.17
2022-11-15T13:37:57.435Z,98837.23
2022-11-15T13:40:31.187Z,98835.89
2022-11-15T13:42:59.545Z,98834.87
2022-11-15T13:45:27.955Z,98831.72
2022-11-15T13:47:58.112Z,98833.80
2022-11-15T13:50:32.008Z,98832.73
2022-11-15T13:53:04.812Z,98828.65
2022-11-15T13:55:34.084Z,98829.23
2022-11-15T13:58:07.268Z,98830.95
2022-11-15T14:00:39.682Z,98833.95
2022-11-15T14:03:15.252Z,98825.77
2022-11-15T14:05:43.814Z,98822.70
2022-11-15T14:08:21.074Z,98820.17
2022-11-15T14:10:49.198Z,98812.20
2022-11-15T14:13:32.280Z,98811.30
2022-11-15T14:16:16.627Z,98810.89
2022-11-15T14:18:49.351Z,98808.72
2022-11-15T14:21:18.436Z,98800.89
2022-11-15T14:23:47.078Z,98797.80
2022-11-15T14:26:33.561Z,98796.38
2022-11-15T14:29:27.569Z,98794.55
2022-11-15T14:32:15.585Z,98791.61
2022-11-15T14:34:44.422Z,98789.95
2022-11-15T14:37:35.669Z,98788.70
2022-11-15T14:40:06.562Z,98792.47
2022-11-15T14:42:34.682Z,98788.63
2022-11-15T14:45:02.848Z,98788.11
2022-11-15T14:47:30.960Z,98786.31
2022-11-15T14:49:59.089Z,98784.38
2022-11-15T14:52:35.235Z,98780.70
2022-11-15T14:55:11.280Z,98774.67
2022-11-15T14:57:39.428Z,98775.09
2022-11-15T15:00:09.561Z,98778.90
2022-11-15T15:02:42.842Z,98779.48
2022-11-15T15:05:34.399Z,98774.04
2022-11-15T15:08:03.209Z,98773.23
2022-11-15T15:10:49.350Z,98774.59
2022-11-15T15:13:20.595Z,98775.80
2022-11-15T15:15:50.253Z,98776.23
2022-11-15T15:18:19.147Z,98775.73
2022-11-15T15:21:22.887Z,98774.60
2022-11-15T15:23:52.041Z,98766.84
2022-11-15T15:26:20.158Z,98761.80
2022-11-15T15:28:49.694Z,98756.89
2022-11-15T15:31:18.240Z,98756.41
2022-11-15T15:33:46.511Z,98759.77
2022-11-15T15:36:18.567Z,98760.27
2022-11-15T15:38:47.724Z,98752.21
2022-11-15T15:41:17.212Z,98749.70
2022-11-15T15:43:45.676Z,98740.14
2022-11-15T15:46:19.504Z,98736.67
2022-11-15T15:48:47.913Z,98736.55
2022-11-15T15:51:20.351Z,98738.19
2022-11-15T15:53:49.489Z,98737.00
2022-11-15T15:56:17.656Z,98741.20
2022-11-15T15:58:45.758Z,98737.27
2022-11-15T16:01:14.415Z,98735.09
2022-11-15T16:03:42.620Z,98738.77
2022-11-15T16:06:35.353Z,98735.05
2022-11-15T16:09:20.688Z,98730.49
2022-11-15T16:11:49.094Z,98728.71
2022-11-15T16:14:17.281Z,98723.16
2022-11-15T16:16:45.391Z,98719.67
2022-11-15T16:19:13.594Z,98718.14
2022-11-15T16:21:41.834Z,98718.98
2022-11-15T16:24:10.257Z,98718.77
2022-11-15T16:26:38.985Z,98717.33
2022-11-15T16:29:10.264Z,98712.84
2022-11-15T16:31:38.572Z,98711.14
2022-11-15T16:34:07.459Z,98712.48
2022-11-15T16:36:36.557Z,98712.09
2022-11-15T16:39:05.128Z,98715.31
2022-11-15T16:41:33.674Z,98716.50
2022-11-15T16:44:01.925Z,98712.04
2022-11-15T16:46:30.191Z,98713.29
2022-11-15T16:48:58.510Z,98708.42
2022-11-15T16:51:26.821Z,98706.66
2022-11-15T16:53:55.071Z,98701.98
2022-11-15T16:56:29.068Z,98700.25
2022-11-15T16:58:58.969Z,98699.10
2022-11-15T17:01:32.546Z,98695.21
2022-11-15T17:04:12.548Z,98696.80
2022-11-15T17:06:42.062Z,98699.82
2022-11-15T17:09:24.682Z,98697.41
2022-11-15T17:11:53.528Z,98691.70
2022-11-15T17:14:21.786Z,98690.88
2022-11-15T17:16:49.959Z,98689.67
2022-11-15T17:19:21.119Z,98685.48
2022-11-15T17:21:49.743Z,98681.17
2022-11-15T17:24:18.112Z,98675.79
2022-11-15T17:26:46.218Z,98672.50
2022-11-15T17:29:14.392Z,98671.13
2022-11-15T17:31:42.522Z,98673.73
2022-11-15T17:34:10.703Z,98673.36
2022-11-15T17:36:38.885Z,98675.64
2022-11-15T17:39:06.986Z,98675.17
2022-11-15T17:41:35.255Z,98668.36
2022-11-15T17:44:03.780Z,98668.84
2022-11-15T17:46:33.525Z,98673.64
2022-11-15T17:49:01.916Z,98672.92
2022-11-15T17:51:30.089Z,98670.82
2022-11-15T17:53:58.604Z,98667.36
2022-11-15T17:56:28.451Z,98656.45
2022-11-15T17:58:59.042Z,98652.67
2022-11-15T18:01:32.777Z,98652.66
2022-11-15T18:04:03.726Z,98648.60
2022-11-15T18:06:34.160Z,98650.08
2022-11-15T18:09:03.643Z,98648.37
2022-11-15T18:11:35.176Z,98649.02
2022-11-15T18:14:06.312Z,98643.77
2022-11-15T18:16:37.073Z,98640.08
2022-11-15T18:19:09.026Z,98634.51
2022-11-15T18:21:56.167Z,98630.30
2022-11-15T18:24:27.060Z,98630.51
2022-11-15T18:26:55.757Z,98636.45
2022-11-15T18:29:26.801Z,98638.66
2022-11-15T18:31:55.892Z,98637.90
2022-11-15T18:34:31.875Z,98639.31
2022-11-15T18:37:02.761Z,98639.60
2022-11-15T18:39:31.138Z,98637.36
2022-11-15T18:41:59.428Z,98633.77
2022-11-15T18:44:31.080Z,98628.55
2022-11-15T18:46:59.230Z,98627.15
2022-11-15T18:49:27.363Z,98629.23
2022-11-15T18:51:56.945Z,98632.15
2022-11-15T18:54:30.630Z,98632.17
2022-11-15T18:57:00.164Z,98631.51
2022-11-15T18:59:29.293Z,98622.14
2022-11-15T19:01:57.389Z,98615.45
2022-11-15T19:04:25.606Z,98616.80
2022-11-15T19:06:54.098Z,98616.61
2022-11-15T19:09:22.374Z,98611.58
2022-11-15T19:11:51.648Z,98609.48
2022-11-15T19:14:24.245Z,98609.45
2022-11-15T19:16:52.993Z,98607.79
2022-11-15T19:19:24.575Z,98606.54
2022-11-15T19:21:53.247Z,98607.14
2022-11-15T19:24:21.414Z,98606.46
2022-11-15T19:26:49.554Z,98609.31
2022-11-15T19:29:18.297Z,98610.33
2022-11-15T19:31:48.734Z,98609.05
2022-11-15T19:34:17.914Z,98612.02
2022-11-15T19:36:46.542Z,98610.64
2022-11-15T19:39:18.063Z,98609.69
2022-11-15T19:41:47.543Z,98608.01
2022-11-15T19:44:16.162Z,98607.20
2022-11-15T19:46:44.467Z,98604.60
2022-11-15T19:49:13.085Z,98608.11
2022-11-15T19:51:47.196Z,98607.80
2022-11-15T19:54:17.160Z,98607.21
2022-11-15T19:56:45.482Z,98602.84
2022-11-15T19:59:14.299Z,98597.16
2022-11-15T20:01:42.687Z,98594.90
2022-11-15T20:04:10.951Z,98588.75
2022-11-15T20:06:42.074Z,98584.81
2022-11-15T20:09:15.826Z,98581.10
2022-11-15T20:11:44.868Z,98584.09
2022-11-15T20:14:13.411Z,98580.02
2022-11-15T20:16:41.856Z,98575.71
2022-11-15T20:19:12.422Z,98567.27
2022-11-15T20:21:41.016Z,98565.92
2022-11-15T20:24:10.040Z,98561.23
2022-11-15T20:26:39.370Z,98557.89
2022-11-15T20:29:08.501Z,98554.38
2022-11-15T20:31:37.275Z,98554.06
2022-11-15T20:34:05.837Z,98552.86
2022-11-15T20:36:34.038Z,98547.30
2022-11-15T20:39:02.227Z,98546.80
2022-11-15T20:41:30.422Z,98545.23
2022-11-15T20:43:58.730Z,98544.13
2022-11-15T20:46:26.869Z,98541.67
2022-11-15T20:48:55.033Z,98539.38
2022-11-15T20:51:23.240Z,98537.61
2022-11-15T20:53:51.404Z,98532.98
2022-11-15T20:56:21.621Z,98535.14
2022-11-15T20:58:50.784Z,98535.39
2022-11-15T21:01:24.875Z,98529.61
2022-11-15T21:03:57.222Z,98521.45
2022-11-15T21:06:26.579Z,98521.39
2022-11-15T21:09:14.115Z,98519.75
2022-11-15T21:12:00.932Z,98522.17
2022-11-15T21:14:31.507Z,98518.10
2022-11-15T21:16:59.629Z,98515.54
2022-11-15T21:19:34.035Z,98515.15
2022-11-15T21:22:06.198Z,98513.90
2022-11-15T21:24:34.315Z,98508.54
2022-11-15T21:27:02.433Z,98509.00
2022-11-15T21:29:40.154Z,98505.09
2022-11-15T21:32:09.408Z,98502.17
2022-11-15T21:34:38.219Z,98503.71
2022-11-15T21:37:07.096Z,98502.52
2022-11-15T21:39:35.342Z,98500.04
2022-11-15T21:42:03.896Z,98500.35
2022-11-15T21:44:32.342Z,98500.58
2022-11-15T21:47:00.523Z,98498.85
2022-11-15T21:49:28.740Z,98496.72
2022-11-15T21:51:56.941Z,98493.98
2022-11-15T21:54:25.003Z,98495.84
2022-11-15T21:56:53.209Z,98496.77
2022-11-15T21:59:21.294Z,98492.90
2022-11-15T22:02:08.087Z,98486.95
2022-11-15T22:04:36.198Z,98478.20
2022-11-15T22:07:04.473Z,98473.39
2022-11-15T22:09:32.705Z,98468.40
2022-11-15T22:12:00.944Z,98465.63
2022-11-15T22:14:29.183Z,98461.42
2022-11-15T22:16:57.303Z,98458.86
2022-11-15T22:19:25.452Z,98453.46
2022-11-15T22:21:53.714Z,98450.38
2022-11-15T22:24:22.455Z,98446.61
2022-11-15T22:26:50.625Z,98441.64
2022-11-15T22:29:18.739Z,98442.39
2022-11-15T22:31:46.882Z,98439.02
2022-11-15T22:34:15.076Z,98441.20
2022-11-15T22:37:05.761Z,98440.59
2022-11-15T22:39:33.685Z,98438.23
2022-11-15T22:42:01.852Z,98438.29
2022-11-15T22:44:30.004Z,98436.60
2022-11-15T22:46:58.143Z,98438.42
2022-11-15T22:49:26.297Z,98438.33
2022-11-15T22:51:54.416Z,98435.33
2022-11-15T22:54:22.599Z,98432.65
2022-11-15T22:56:50.791Z,98422.83
2022-11-15T22:59:18.955Z,98421.70
2022-11-15T23:01:47.199Z,98423.45
2022-11-15T23:04:15.446Z,98421.02
2022-11-15T23:06:43.625Z,98412.67
2022-11-15T23:09:11.854Z,98409.34
2022-11-15T23:12:00.787Z,98410.44
2022-11-15T23:14:29.274Z,98410.47
2022-11-15T23:16:57.402Z,98408.19
2022-11-15T23:19:25.780Z,98404.39
2022-11-15T23:22:12.361Z,98400.77
2022-11-15T23:24:40.547Z,98394.82
2022-11-15T23:27:08.826Z,98388.27
2022-11-15T23:29:57.589Z,98388.30
2022-11-15T23:32:44.422Z,98384.52
2022-11-15T23:35:12.695Z,98383.27
2022-11-15T23:37:40.964Z,98382.73
2022-11-15T23:40:10.168Z,98380.44
2022-11-15T23:42:38.404Z,98378.28
2022-11-15T23:45:07.464Z,98377.73
2022-11-15T23:47:35.683Z,98377.52
2022-11-15T23:50:04.308Z,98379.21
2022-11-15T23:52:32.559Z,98375.42
2022-11-15T23:55:00.785Z,98374.17
2022-11-15T23:57:28.885Z,98372.16
